sensor_id;sensor_type;location;lat;lon;timestamp;P1;durP1;ratioP1;P2;durP2;ratioP2
76121;SDS011;64853;53.200;6.080;2023-04-01T00:04:36;0.30;;;0.15;;
76121;SDS011;64853;53.200;6.080;2023-04-01T00:09:27;0.30;;;0.20;;
76121;SDS011;64853;53.200;6.080;2023-04-01T00:14:20;1.20;;;0.20;;
76121;SDS011;64853;53.200;6.080;2023-04-01T00:24:05;0.30;;;0.10;;
76121;SDS011;64853;53.200;6.080;2023-04-01T00:28:58;0.17;;;0.10;;
76121;SDS011;64853;53.200;6.080;2023-04-01T00:33:51;0.10;;;0.10;;
76121;SDS011;64853;53.200;6.080;2023-04-01T00:38:43;0.10;;;0.10;;
76121;SDS011;64853;53.200;6.080;2023-04-01T00:43:38;0.30;;;0.20;;
76121;SDS011;64853;53.200;6.080;2023-04-01T00:48:31;0.10;;;0.10;;
76121;SDS011;64853;53.200;6.080;2023-04-01T00:53:28;0.60;;;0.20;;
76121;SDS011;64853;53.200;6.080;2023-04-01T00:58:22;0.28;;;0.20;;
76121;SDS011;64853;53.200;6.080;2023-04-01T01:03:18;0.77;;;0.20;;
76121;SDS011;64853;53.200;6.080;2023-04-01T01:08:12;0.10;;;0.10;;
76121;SDS011;64853;53.200;6.080;2023-04-01T01:13:10;0.47;;;0.00;;
76121;SDS011;64853;53.200;6.080;2023-04-01T01:18:07;0.60;;;0.20;;
76121;SDS011;64853;53.200;6.080;2023-04-01T01:23:21;0.15;;;0.15;;
76121;SDS011;64853;53.200;6.080;2023-04-01T01:28:28;0.10;;;0.00;;
76121;SDS011;64853;53.200;6.080;2023-04-01T01:33:42;0.10;;;0.10;;
76121;SDS011;64853;53.200;6.080;2023-04-01T01:38:54;0.10;;;0.08;;
76121;SDS011;64853;53.200;6.080;2023-04-01T01:43:48;0.57;;;0.20;;
76121;SDS011;64853;53.200;6.080;2023-04-01T01:48:42;0.77;;;0.20;;
76121;SDS011;64853;53.200;6.080;2023-04-01T01:53:36;0.25;;;0.10;;
76121;SDS011;64853;53.200;6.080;2023-04-01T01:58:31;0.20;;;0.10;;
76121;SDS011;64853;53.200;6.080;2023-04-01T02:03:30;0.20;;;0.10;;
76121;SDS011;64853;53.200;6.080;2023-04-01T02:08:26;0.32;;;0.10;;
76121;SDS011;64853;53.200;6.080;2023-04-01T02:13:24;0.00;;;0.00;;
76121;SDS011;64853;53.200;6.080;2023-04-01T02:18:24;0.45;;;0.20;;
76121;SDS011;64853;53.200;6.080;2023-04-01T02:23:17;0.28;;;0.10;;
76121;SDS011;64853;53.200;6.080;2023-04-01T02:28:10;0.60;;;0.10;;
76121;SDS011;64853;53.200;6.080;2023-04-01T02:33:06;0.52;;;0.10;;
76121;SDS011;64853;53.200;6.080;2023-04-01T02:38:00;0.10;;;0.08;;
76121;SDS011;64853;53.200;6.080;2023-04-01T02:42:53;0.10;;;0.10;;
76121;SDS011;64853;53.200;6.080;2023-04-01T02:47:45;0.15;;;0.10;;
76121;SDS011;64853;53.200;6.080;2023-04-01T02:52:37;0.60;;;0.10;;
76121;SDS011;64853;53.200;6.080;2023-04-01T02:57:30;0.03;;;0.03;;
76121;SDS011;64853;53.200;6.080;2023-04-01T03:02:23;0.15;;;0.10;;
76121;SDS011;64853;53.200;6.080;2023-04-01T03:07:15;0.77;;;0.30;;
76121;SDS011;64853;53.200;6.080;2023-04-01T03:12:06;0.20;;;0.20;;
76121;SDS011;64853;53.200;6.080;2023-04-01T03:17:00;0.25;;;0.10;;
76121;SDS011;64853;53.200;6.080;2023-04-01T03:21:52;1.75;;;0.28;;
76121;SDS011;64853;53.200;6.080;2023-04-01T03:26:44;0.65;;;0.20;;
76121;SDS011;64853;53.200;6.080;2023-04-01T03:31:36;0.50;;;0.30;;
76121;SDS011;64853;53.200;6.080;2023-04-01T03:36:29;0.30;;;0.30;;
76121;SDS011;64853;53.200;6.080;2023-04-01T03:41:22;0.20;;;0.13;;
76121;SDS011;64853;53.200;6.080;2023-04-01T03:46:16;0.50;;;0.20;;
76121;SDS011;64853;53.200;6.080;2023-04-01T03:51:09;0.40;;;0.20;;
76121;SDS011;64853;53.200;6.080;2023-04-01T03:56:04;0.85;;;0.35;;
76121;SDS011;64853;53.200;6.080;2023-04-01T04:00:57;0.32;;;0.20;;
76121;SDS011;64853;53.200;6.080;2023-04-01T04:05:49;0.30;;;0.10;;
76121;SDS011;64853;53.200;6.080;2023-04-01T04:10:41;0.38;;;0.28;;
76121;SDS011;64853;53.200;6.080;2023-04-01T04:15:35;0.25;;;0.25;;
76121;SDS011;64853;53.200;6.080;2023-04-01T04:20:28;1.33;;;0.32;;
76121;SDS011;64853;53.200;6.080;2023-04-01T04:25:20;0.08;;;0.08;;
76121;SDS011;64853;53.200;6.080;2023-04-01T04:30:13;0.65;;;0.40;;
76121;SDS011;64853;53.200;6.080;2023-04-01T04:35:07;0.30;;;0.20;;
76121;SDS011;64853;53.200;6.080;2023-04-01T04:39:59;0.15;;;0.15;;
76121;SDS011;64853;53.200;6.080;2023-04-01T04:44:51;0.22;;;0.20;;
76121;SDS011;64853;53.200;6.080;2023-04-01T04:49:43;0.95;;;0.20;;
76121;SDS011;64853;53.200;6.080;2023-04-01T04:59:29;0.20;;;0.10;;
76121;SDS011;64853;53.200;6.080;2023-04-01T05:04:21;0.43;;;0.30;;
76121;SDS011;64853;53.200;6.080;2023-04-01T05:09:14;0.08;;;0.03;;
76121;SDS011;64853;53.200;6.080;2023-04-01T05:14:12;0.20;;;0.10;;
76121;SDS011;64853;53.200;6.080;2023-04-01T05:19:05;0.22;;;0.17;;
76121;SDS011;64853;53.200;6.080;2023-04-01T05:23:57;0.30;;;0.17;;
76121;SDS011;64853;53.200;6.080;2023-04-01T05:28:49;0.32;;;0.32;;
76121;SDS011;64853;53.200;6.080;2023-04-01T05:33:42;0.17;;;0.10;;
76121;SDS011;64853;53.200;6.080;2023-04-01T05:38:34;0.13;;;0.13;;
76121;SDS011;64853;53.200;6.080;2023-04-01T05:43:27;0.10;;;0.10;;
76121;SDS011;64853;53.200;6.080;2023-04-01T05:48:19;0.30;;;0.20;;
76121;SDS011;64853;53.200;6.080;2023-04-01T05:53:13;0.10;;;0.10;;
76121;SDS011;64853;53.200;6.080;2023-04-01T05:58:05;0.28;;;0.13;;
76121;SDS011;64853;53.200;6.080;2023-04-01T06:02:58;0.40;;;0.10;;
76121;SDS011;64853;53.200;6.080;2023-04-01T06:07:50;0.50;;;0.20;;
76121;SDS011;64853;53.200;6.080;2023-04-01T06:12:52;0.55;;;0.30;;
76121;SDS011;64853;53.200;6.080;2023-04-01T06:18:02;0.68;;;0.20;;
76121;SDS011;64853;53.200;6.080;2023-04-01T06:34:06;0.55;;;0.50;;
76121;SDS011;64853;53.200;6.080;2023-04-01T06:39:17;0.50;;;0.30;;
76121;SDS011;64853;53.200;6.080;2023-04-01T06:44:37;0.20;;;0.20;;
76121;SDS011;64853;53.200;6.080;2023-04-01T06:49:44;0.40;;;0.40;;
76121;SDS011;64853;53.200;6.080;2023-04-01T06:54:44;0.30;;;0.30;;
76121;SDS011;64853;53.200;6.080;2023-04-01T06:59:42;0.75;;;0.40;;
76121;SDS011;64853;53.200;6.080;2023-04-01T07:04:35;0.30;;;0.28;;
76121;SDS011;64853;53.200;6.080;2023-04-01T07:09:32;0.10;;;0.10;;
76121;SDS011;64853;53.200;6.080;2023-04-01T07:14:28;0.38;;;0.35;;
76121;SDS011;64853;53.200;6.080;2023-04-01T07:19:27;0.70;;;0.50;;
76121;SDS011;64853;53.200;6.080;2023-04-01T07:24:24;0.60;;;0.40;;
76121;SDS011;64853;53.200;6.080;2023-04-01T07:29:20;1.63;;;0.35;;
76121;SDS011;64853;53.200;6.080;2023-04-01T07:34:14;0.82;;;0.30;;
76121;SDS011;64853;53.200;6.080;2023-04-01T07:39:15;0.80;;;0.50;;
76121;SDS011;64853;53.200;6.080;2023-04-01T07:44:20;1.50;;;0.38;;
76121;SDS011;64853;53.200;6.080;2023-04-01T07:49:22;0.93;;;0.22;;
76121;SDS011;64853;53.200;6.080;2023-04-01T07:54:23;0.20;;;0.20;;
76121;SDS011;64853;53.200;6.080;2023-04-01T07:59:25;0.77;;;0.20;;
76121;SDS011;64853;53.200;6.080;2023-04-01T08:04:26;0.77;;;0.43;;
76121;SDS011;64853;53.200;6.080;2023-04-01T08:09:30;0.80;;;0.50;;
76121;SDS011;64853;53.200;6.080;2023-04-01T08:14:30;0.52;;;0.40;;
76121;SDS011;64853;53.200;6.080;2023-04-01T08:19:30;0.40;;;0.40;;
76121;SDS011;64853;53.200;6.080;2023-04-01T08:24:36;0.50;;;0.40;;
76121;SDS011;64853;53.200;6.080;2023-04-01T08:29:34;0.60;;;0.52;;
76121;SDS011;64853;53.200;6.080;2023-04-01T08:34:34;1.13;;;0.40;;
76121;SDS011;64853;53.200;6.080;2023-04-01T08:39:30;0.90;;;0.60;;
76121;SDS011;64853;53.200;6.080;2023-04-01T08:50:16;0.38;;;0.30;;
76121;SDS011;64853;53.200;6.080;2023-04-01T08:55:27;0.55;;;0.40;;
76121;SDS011;64853;53.200;6.080;2023-04-01T09:00:31;0.80;;;0.40;;
76121;SDS011;64853;53.200;6.080;2023-04-01T09:05:38;0.70;;;0.45;;
76121;SDS011;64853;53.200;6.080;2023-04-01T09:11:05;0.63;;;0.20;;
76121;SDS011;64853;53.200;6.080;2023-04-01T09:16:08;0.50;;;0.30;;
76121;SDS011;64853;53.200;6.080;2023-04-01T09:21:22;0.75;;;0.30;;
76121;SDS011;64853;53.200;6.080;2023-04-01T09:26:33;0.20;;;0.20;;
76121;SDS011;64853;53.200;6.080;2023-04-01T09:31:50;0.85;;;0.30;;
76121;SDS011;64853;53.200;6.080;2023-04-01T09:37:00;0.40;;;0.25;;
76121;SDS011;64853;53.200;6.080;2023-04-01T09:47:40;0.15;;;0.13;;
76121;SDS011;64853;53.200;6.080;2023-04-01T09:52:44;0.50;;;0.20;;
76121;SDS011;64853;53.200;6.080;2023-04-01T10:03:28;2.58;;;0.30;;
76121;SDS011;64853;53.200;6.080;2023-04-01T10:08:51;0.38;;;0.30;;
76121;SDS011;64853;53.200;6.080;2023-04-01T10:14:23;0.45;;;0.30;;
76121;SDS011;64853;53.200;6.080;2023-04-01T10:25:12;0.63;;;0.30;;
76121;SDS011;64853;53.200;6.080;2023-04-01T10:30:38;0.40;;;0.30;;
76121;SDS011;64853;53.200;6.080;2023-04-01T10:36:01;0.98;;;0.60;;
76121;SDS011;64853;53.200;6.080;2023-04-01T10:57:57;2.72;;;0.77;;
76121;SDS011;64853;53.200;6.080;2023-04-01T11:20:24;2.50;;;0.50;;
76121;SDS011;64853;53.200;6.080;2023-04-01T11:25:56;2.40;;;0.30;;
76121;SDS011;64853;53.200;6.080;2023-04-01T11:30:58;2.65;;;1.35;;
76121;SDS011;64853;53.200;6.080;2023-04-01T11:35:58;2.08;;;0.82;;
76121;SDS011;64853;53.200;6.080;2023-04-01T11:40:59;1.85;;;0.73;;
76121;SDS011;64853;53.200;6.080;2023-04-01T11:46:10;1.20;;;0.43;;
76121;SDS011;64853;53.200;6.080;2023-04-01T11:51:10;1.00;;;0.50;;
76121;SDS011;64853;53.200;6.080;2023-04-01T12:01:53;0.30;;;0.28;;
76121;SDS011;64853;53.200;6.080;2023-04-01T12:06:52;0.60;;;0.50;;
76121;SDS011;64853;53.200;6.080;2023-04-01T12:11:57;1.25;;;0.40;;
76121;SDS011;64853;53.200;6.080;2023-04-01T12:17:01;1.92;;;0.35;;
76121;SDS011;64853;53.200;6.080;2023-04-01T12:22:06;1.50;;;0.50;;
76121;SDS011;64853;53.200;6.080;2023-04-01T12:27:30;1.42;;;0.55;;
76121;SDS011;64853;53.200;6.080;2023-04-01T12:32:34;0.60;;;0.50;;
76121;SDS011;64853;53.200;6.080;2023-04-01T12:37:35;1.15;;;0.50;;
76121;SDS011;64853;53.200;6.080;2023-04-01T12:42:36;0.38;;;0.38;;
76121;SDS011;64853;53.200;6.080;2023-04-01T12:47:51;0.47;;;0.30;;
76121;SDS011;64853;53.200;6.080;2023-04-01T12:52:59;0.30;;;0.20;;
76121;SDS011;64853;53.200;6.080;2023-04-01T13:03:43;0.55;;;0.28;;
76121;SDS011;64853;53.200;6.080;2023-04-01T13:08:46;0.22;;;0.22;;
76121;SDS011;64853;53.200;6.080;2023-04-01T13:13:59;0.20;;;0.20;;
76121;SDS011;64853;53.200;6.080;2023-04-01T13:19:23;0.10;;;0.10;;
76121;SDS011;64853;53.200;6.080;2023-04-01T13:24:28;0.45;;;0.20;;
76121;SDS011;64853;53.200;6.080;2023-04-01T13:29:31;0.40;;;0.30;;
76121;SDS011;64853;53.200;6.080;2023-04-01T13:34:34;0.38;;;0.20;;
76121;SDS011;64853;53.200;6.080;2023-04-01T13:39:41;1.15;;;0.30;;
76121;SDS011;64853;53.200;6.080;2023-04-01T13:44:46;0.63;;;0.17;;
76121;SDS011;64853;53.200;6.080;2023-04-01T13:49:57;1.40;;;0.20;;
76121;SDS011;64853;53.200;6.080;2023-04-01T13:55:03;0.00;;;0.00;;
76121;SDS011;64853;53.200;6.080;2023-04-01T14:00:29;0.10;;;0.10;;
76121;SDS011;64853;53.200;6.080;2023-04-01T14:05:38;0.40;;;0.30;;
76121;SDS011;64853;53.200;6.080;2023-04-01T14:10:43;0.10;;;0.10;;
76121;SDS011;64853;53.200;6.080;2023-04-01T14:15:44;0.20;;;0.20;;
76121;SDS011;64853;53.200;6.080;2023-04-01T14:20:56;0.30;;;0.10;;
76121;SDS011;64853;53.200;6.080;2023-04-01T14:26:07;0.35;;;0.15;;
76121;SDS011;64853;53.200;6.080;2023-04-01T14:31:17;0.20;;;0.13;;
76121;SDS011;64853;53.200;6.080;2023-04-01T14:36:37;0.20;;;0.20;;
76121;SDS011;64853;53.200;6.080;2023-04-01T14:41:40;0.90;;;0.20;;
76121;SDS011;64853;53.200;6.080;2023-04-01T14:52:22;0.93;;;0.10;;
76121;SDS011;64853;53.200;6.080;2023-04-01T14:57:23;0.05;;;0.05;;
76121;SDS011;64853;53.200;6.080;2023-04-01T15:07:50;0.10;;;0.10;;
76121;SDS011;64853;53.200;6.080;2023-04-01T15:12:58;0.22;;;0.10;;
76121;SDS011;64853;53.200;6.080;2023-04-01T15:18:07;0.10;;;0.10;;
76121;SDS011;64853;53.200;6.080;2023-04-01T15:23:05;0.10;;;0.10;;
76121;SDS011;64853;53.200;6.080;2023-04-01T15:28:11;0.22;;;0.10;;
76121;SDS011;64853;53.200;6.080;2023-04-01T15:33:25;0.10;;;0.10;;
76121;SDS011;64853;53.200;6.080;2023-04-01T15:38:33;0.25;;;0.20;;
76121;SDS011;64853;53.200;6.080;2023-04-01T15:43:35;0.45;;;0.10;;
76121;SDS011;64853;53.200;6.080;2023-04-01T15:48:44;0.32;;;0.13;;
76121;SDS011;64853;53.200;6.080;2023-04-01T15:58:51;0.20;;;0.20;;
76121;SDS011;64853;53.200;6.080;2023-04-01T16:03:54;0.47;;;0.20;;
76121;SDS011;64853;53.200;6.080;2023-04-01T16:08:56;0.52;;;0.17;;
76121;SDS011;64853;53.200;6.080;2023-04-01T16:14:09;0.50;;;0.20;;
76121;SDS011;64853;53.200;6.080;2023-04-01T16:19:13;0.30;;;0.30;;
76121;SDS011;64853;53.200;6.080;2023-04-01T16:24:22;0.38;;;0.17;;
76121;SDS011;64853;53.200;6.080;2023-04-01T16:29:26;1.02;;;0.22;;
76121;SDS011;64853;53.200;6.080;2023-04-01T16:34:25;0.30;;;0.25;;
76121;SDS011;64853;53.200;6.080;2023-04-01T16:39:33;0.60;;;0.40;;
76121;SDS011;64853;53.200;6.080;2023-04-01T16:44:43;0.45;;;0.38;;
76121;SDS011;64853;53.200;6.080;2023-04-01T16:49:42;0.47;;;0.38;;
76121;SDS011;64853;53.200;6.080;2023-04-01T16:54:51;0.60;;;0.50;;
76121;SDS011;64853;53.200;6.080;2023-04-01T16:59:53;0.50;;;0.38;;
76121;SDS011;64853;53.200;6.080;2023-04-01T17:04:52;0.47;;;0.40;;
76121;SDS011;64853;53.200;6.080;2023-04-01T17:09:56;0.68;;;0.40;;
76121;SDS011;64853;53.200;6.080;2023-04-01T17:14:59;0.60;;;0.40;;
76121;SDS011;64853;53.200;6.080;2023-04-01T17:19:59;2.17;;;0.60;;
76121;SDS011;64853;53.200;6.080;2023-04-01T17:25:04;1.02;;;0.63;;
76121;SDS011;64853;53.200;6.080;2023-04-01T17:30:22;1.35;;;0.68;;
76121;SDS011;64853;53.200;6.080;2023-04-01T17:35:17;1.08;;;0.65;;
76121;SDS011;64853;53.200;6.080;2023-04-01T17:40:20;0.70;;;0.30;;
76121;SDS011;64853;53.200;6.080;2023-04-01T17:45:24;0.85;;;0.60;;
76121;SDS011;64853;53.200;6.080;2023-04-01T17:50:23;0.60;;;0.43;;
76121;SDS011;64853;53.200;6.080;2023-04-01T18:00:33;0.50;;;0.38;;
76121;SDS011;64853;53.200;6.080;2023-04-01T18:05:41;0.90;;;0.57;;
76121;SDS011;64853;53.200;6.080;2023-04-01T18:10:49;2.05;;;0.50;;
76121;SDS011;64853;53.200;6.080;2023-04-01T18:15:50;1.35;;;0.50;;
76121;SDS011;64853;53.200;6.080;2023-04-01T18:20:54;0.82;;;0.60;;
76121;SDS011;64853;53.200;6.080;2023-04-01T18:26:01;0.68;;;0.50;;
76121;SDS011;64853;53.200;6.080;2023-04-01T18:30:58;1.08;;;0.50;;
76121;SDS011;64853;53.200;6.080;2023-04-01T18:36:03;0.70;;;0.70;;
76121;SDS011;64853;53.200;6.080;2023-04-01T18:41:11;1.88;;;0.70;;
76121;SDS011;64853;53.200;6.080;2023-04-01T18:46:09;1.60;;;0.60;;
76121;SDS011;64853;53.200;6.080;2023-04-01T18:51:12;1.60;;;0.60;;
76121;SDS011;64853;53.200;6.080;2023-04-01T18:56:08;2.25;;;0.80;;
76121;SDS011;64853;53.200;6.080;2023-04-01T19:01:11;1.17;;;0.60;;
76121;SDS011;64853;53.200;6.080;2023-04-01T19:06:14;2.20;;;0.60;;
76121;SDS011;64853;53.200;6.080;2023-04-01T19:11:13;1.25;;;0.65;;
76121;SDS011;64853;53.200;6.080;2023-04-01T19:16:19;2.70;;;0.70;;
76121;SDS011;64853;53.200;6.080;2023-04-01T19:21:21;2.17;;;0.90;;
76121;SDS011;64853;53.200;6.080;2023-04-01T19:26:19;2.40;;;0.70;;
76121;SDS011;64853;53.200;6.080;2023-04-01T19:31:24;4.05;;;0.85;;
76121;SDS011;64853;53.200;6.080;2023-04-01T19:36:27;0.93;;;0.60;;
76121;SDS011;64853;53.200;6.080;2023-04-01T19:41:30;2.17;;;1.13;;
76121;SDS011;64853;53.200;6.080;2023-04-01T19:46:30;2.22;;;0.90;;
76121;SDS011;64853;53.200;6.080;2023-04-01T19:51:28;2.20;;;0.90;;
76121;SDS011;64853;53.200;6.080;2023-04-01T19:56:29;1.58;;;0.68;;
76121;SDS011;64853;53.200;6.080;2023-04-01T20:01:32;1.23;;;0.63;;
76121;SDS011;64853;53.200;6.080;2023-04-01T20:06:32;0.65;;;0.57;;
76121;SDS011;64853;53.200;6.080;2023-04-01T20:11:43;1.20;;;0.80;;
76121;SDS011;64853;53.200;6.080;2023-04-01T20:16:50;1.73;;;0.73;;
76121;SDS011;64853;53.200;6.080;2023-04-01T20:21:48;1.00;;;0.80;;
76121;SDS011;64853;53.200;6.080;2023-04-01T20:26:41;0.57;;;0.50;;
76121;SDS011;64853;53.200;6.080;2023-04-01T20:31:36;1.42;;;1.25;;
76121;SDS011;64853;53.200;6.080;2023-04-01T20:36:36;2.40;;;0.60;;
76121;SDS011;64853;53.200;6.080;2023-04-01T20:41:35;1.52;;;0.90;;
76121;SDS011;64853;53.200;6.080;2023-04-01T20:46:39;1.48;;;0.90;;
76121;SDS011;64853;53.200;6.080;2023-04-01T20:51:42;0.98;;;0.60;;
76121;SDS011;64853;53.200;6.080;2023-04-01T20:56:44;2.35;;;0.55;;
76121;SDS011;64853;53.200;6.080;2023-04-01T21:01:46;0.90;;;0.60;;
76121;SDS011;64853;53.200;6.080;2023-04-01T21:06:51;1.70;;;0.70;;
76121;SDS011;64853;53.200;6.080;2023-04-01T21:12:05;1.13;;;0.85;;
76121;SDS011;64853;53.200;6.080;2023-04-01T21:17:11;0.70;;;0.50;;
76121;SDS011;64853;53.200;6.080;2023-04-01T21:22:43;0.82;;;0.68;;
76121;SDS011;64853;53.200;6.080;2023-04-01T21:27:53;1.60;;;0.70;;
76121;SDS011;64853;53.200;6.080;2023-04-01T21:32:59;1.00;;;0.60;;
76121;SDS011;64853;53.200;6.080;2023-04-01T21:38:08;0.70;;;0.50;;
76121;SDS011;64853;53.200;6.080;2023-04-01T21:43:10;0.63;;;0.57;;
76121;SDS011;64853;53.200;6.080;2023-04-01T21:53:51;1.13;;;0.63;;
76121;SDS011;64853;53.200;6.080;2023-04-01T21:59:15;1.30;;;0.55;;
76121;SDS011;64853;53.200;6.080;2023-04-01T22:04:26;1.35;;;0.70;;
76121;SDS011;64853;53.200;6.080;2023-04-01T22:09:33;1.48;;;0.40;;
76121;SDS011;64853;53.200;6.080;2023-04-01T22:14:31;1.00;;;0.80;;
76121;SDS011;64853;53.200;6.080;2023-04-01T22:19:34;0.82;;;0.60;;
76121;SDS011;64853;53.200;6.080;2023-04-01T22:24:37;0.98;;;0.70;;
76121;SDS011;64853;53.200;6.080;2023-04-01T22:29:38;2.15;;;0.80;;
76121;SDS011;64853;53.200;6.080;2023-04-01T22:34:40;1.23;;;0.60;;
76121;SDS011;64853;53.200;6.080;2023-04-01T22:45:05;1.27;;;0.40;;
76121;SDS011;64853;53.200;6.080;2023-04-01T22:50:14;0.70;;;0.43;;
76121;SDS011;64853;53.200;6.080;2023-04-01T22:55:16;1.00;;;0.50;;
76121;SDS011;64853;53.200;6.080;2023-04-01T23:00:14;1.63;;;0.50;;
76121;SDS011;64853;53.200;6.080;2023-04-01T23:05:11;0.90;;;0.55;;
76121;SDS011;64853;53.200;6.080;2023-04-01T23:10:12;2.30;;;0.70;;
76121;SDS011;64853;53.200;6.080;2023-04-01T23:15:11;0.90;;;0.45;;
76121;SDS011;64853;53.200;6.080;2023-04-01T23:20:14;2.25;;;0.52;;
76121;SDS011;64853;53.200;6.080;2023-04-01T23:25:17;1.75;;;0.75;;
76121;SDS011;64853;53.200;6.080;2023-04-01T23:35:46;1.65;;;0.80;;
76121;SDS011;64853;53.200;6.080;2023-04-01T23:40:40;1.10;;;0.50;;
76121;SDS011;64853;53.200;6.080;2023-04-01T23:45:32;1.67;;;0.68;;
76121;SDS011;64853;53.200;6.080;2023-04-01T23:50:24;2.08;;;0.77;;
76121;SDS011;64853;53.200;6.080;2023-04-01T23:55:18;1.55;;;0.90;;
